Terminal Aerodrome Forecast
Issued by NWS State College, PA

Home | Current Version | Previous Version | Text Only | Print | Product List | Glossary On
Versions: 1 2 3 4 5 6 7 8 9 10 11 12 13 14 15 16 17 18 19 20 21 22 23 24 25 26 27 28 29 30
000
FTUS41 KCTP 041139
TAFIPT
TAF
KIPT 041139Z 0412/0512 VRB05KT P6SM OVC009
     FM041500 VRB05KT P6SM SCT025 BKN035
     FM050400 02004KT 4SM -RA BR OVC025
     FM050900 VRB05KT 4SM -RA BR OVC015=

USA.gov is the U.S. government's official web portal to all federal, state and local government web resources and services.